sensor_id;sensor_type;location;lat;lon;timestamp;pressure;altitude;pressure_sealevel;temperature;humidity
52591;BME280;38483;42.620;25.394;2024-02-26T00:02:49;96702.69;;;9.68;97.55
52591;BME280;38483;42.620;25.394;2024-02-26T00:06:10;96698.66;;;9.80;96.61
52591;BME280;38483;42.620;25.394;2024-02-26T00:09:30;96701.91;;;9.66;96.17
52591;BME280;38483;42.620;25.394;2024-02-26T00:12:51;96692.88;;;9.39;96.83
52591;BME280;38483;42.620;25.394;2024-02-26T00:16:12;96685.53;;;9.30;99.13
52591;BME280;38483;42.620;25.394;2024-02-26T00:19:32;96692.59;;;9.45;97.95
52591;BME280;38483;42.620;25.394;2024-02-26T00:22:53;96693.13;;;9.52;97.56
52591;BME280;38483;42.620;25.394;2024-02-26T00:26:14;96690.31;;;9.56;97.21
52591;BME280;38483;42.620;25.394;2024-02-26T00:29:35;96690.22;;;9.76;96.61
52591;BME280;38483;42.620;25.394;2024-02-26T00:32:55;96687.69;;;9.58;95.67
52591;BME280;38483;42.620;25.394;2024-02-26T00:36:16;96691.75;;;9.45;96.36
52591;BME280;38483;42.620;25.394;2024-02-26T00:39:37;96681.91;;;9.34;96.93
52591;BME280;38483;42.620;25.394;2024-02-26T00:42:57;96686.66;;;9.43;97.05
52591;BME280;38483;42.620;25.394;2024-02-26T00:46:18;96620.13;;;9.11;96.36
52591;BME280;38483;42.620;25.394;2024-02-26T00:49:38;96680.91;;;9.55;96.68
52591;BME280;38483;42.620;25.394;2024-02-26T00:52:59;96674.97;;;9.53;95.85
52591;BME280;38483;42.620;25.394;2024-02-26T00:56:20;96672.19;;;9.39;96.25
52591;BME280;38483;42.620;25.394;2024-02-26T00:59:40;96658.53;;;9.54;95.50
52591;BME280;38483;42.620;25.394;2024-02-26T01:03:01;96664.38;;;9.41;95.73
52591;BME280;38483;42.620;25.394;2024-02-26T01:06:22;96655.16;;;9.35;96.58
52591;BME280;38483;42.620;25.394;2024-02-26T01:09:42;96657.09;;;9.49;96.23
52591;BME280;38483;42.620;25.394;2024-02-26T01:13:03;96653.94;;;9.42;96.28
52591;BME280;38483;42.620;25.394;2024-02-26T01:16:24;96647.44;;;9.52;96.69
52591;BME280;38483;42.620;25.394;2024-02-26T01:19:44;96651.31;;;9.61;96.41
52591;BME280;38483;42.620;25.394;2024-02-26T01:23:05;96647.13;;;9.58;95.31
52591;BME280;38483;42.620;25.394;2024-02-26T01:26:26;96645.31;;;9.43;95.50
52591;BME280;38483;42.620;25.394;2024-02-26T01:29:46;96652.31;;;9.23;96.60
52591;BME280;38483;42.620;25.394;2024-02-26T01:33:07;96656.84;;;9.18;97.27
52591;BME280;38483;42.620;25.394;2024-02-26T01:36:28;96657.19;;;9.29;96.79
52591;BME280;38483;42.620;25.394;2024-02-26T01:39:48;96657.59;;;9.38;96.57
52591;BME280;38483;42.620;25.394;2024-02-26T01:43:10;96651.22;;;9.45;95.42
52591;BME280;38483;42.620;25.394;2024-02-26T01:46:30;96653.53;;;9.51;95.50
52591;BME280;38483;42.620;25.394;2024-02-26T01:49:51;96656.72;;;9.21;96.21
52591;BME280;38483;42.620;25.394;2024-02-26T01:53:12;96651.28;;;9.08;96.49
52591;BME280;38483;42.620;25.394;2024-02-26T01:56:32;96643.81;;;8.83;97.76
52591;BME280;38483;42.620;25.394;2024-02-26T01:59:53;96630.28;;;8.40;99.32
52591;BME280;38483;42.620;25.394;2024-02-26T02:03:14;96625.53;;;8.31;100.00
52591;BME280;38483;42.620;25.394;2024-02-26T02:06:34;96638.38;;;8.32;100.00
52591;BME280;38483;42.620;25.394;2024-02-26T02:09:55;96557.06;;;7.83;100.00
52591;BME280;38483;42.620;25.394;2024-02-26T02:13:16;96646.44;;;8.45;100.00
52591;BME280;38483;42.620;25.394;2024-02-26T02:16:36;96650.84;;;8.61;100.00
52591;BME280;38483;42.620;25.394;2024-02-26T02:19:57;96644.66;;;8.45;100.00
52591;BME280;38483;42.620;25.394;2024-02-26T02:23:22;96644.84;;;8.61;100.00
52591;BME280;38483;42.620;25.394;2024-02-26T02:26:47;96642.25;;;8.61;100.00
52591;BME280;38483;42.620;25.394;2024-02-26T02:30:07;96639.69;;;8.61;100.00
52591;BME280;38483;42.620;25.394;2024-02-26T02:33:28;96591.28;;;8.27;100.00
52591;BME280;38483;42.620;25.394;2024-02-26T02:36:51;96646.09;;;8.71;100.00
52591;BME280;38483;42.620;25.394;2024-02-26T02:40:09;96639.81;;;8.76;100.00
52591;BME280;38483;42.620;25.394;2024-02-26T02:43:30;96640.16;;;8.69;100.00
52591;BME280;38483;42.620;25.394;2024-02-26T02:46:51;96634.25;;;8.67;100.00
52591;BME280;38483;42.620;25.394;2024-02-26T02:50:11;96627.72;;;8.40;100.00
52591;BME280;38483;42.620;25.394;2024-02-26T02:53:32;96639.50;;;8.45;100.00
52591;BME280;38483;42.620;25.394;2024-02-26T02:56:53;96638.69;;;8.45;100.00
52591;BME280;38483;42.620;25.394;2024-02-26T03:00:13;96642.41;;;8.38;100.00
52591;BME280;38483;42.620;25.394;2024-02-26T03:03:34;96634.41;;;8.23;100.00
52591;BME280;38483;42.620;25.394;2024-02-26T03:06:55;96637.44;;;8.13;100.00
52591;BME280;38483;42.620;25.394;2024-02-26T03:10:16;96635.25;;;8.24;100.00
52591;BME280;38483;42.620;25.394;2024-02-26T03:13:37;96636.41;;;8.37;100.00
52591;BME280;38483;42.620;25.394;2024-02-26T03:16:57;96632.13;;;8.56;100.00
52591;BME280;38483;42.620;25.394;2024-02-26T03:20:18;96648.75;;;8.69;100.00
52591;BME280;38483;42.620;25.394;2024-02-26T03:23:39;96628.31;;;8.83;100.00
52591;BME280;38483;42.620;25.394;2024-02-26T03:26:59;96632.72;;;8.81;100.00
52591;BME280;38483;42.620;25.394;2024-02-26T03:30:20;96629.22;;;8.82;100.00
52591;BME280;38483;42.620;25.394;2024-02-26T03:33:41;96627.84;;;8.94;100.00
52591;BME280;38483;42.620;25.394;2024-02-26T03:37:01;96634.81;;;8.92;100.00
52591;BME280;38483;42.620;25.394;2024-02-26T03:40:22;96641.06;;;8.86;100.00
52591;BME280;38483;42.620;25.394;2024-02-26T03:43:43;96631.38;;;8.91;100.00
52591;BME280;38483;42.620;25.394;2024-02-26T03:47:03;96620.13;;;8.92;99.77
52591;BME280;38483;42.620;25.394;2024-02-26T03:50:24;96627.88;;;8.92;100.00
52591;BME280;38483;42.620;25.394;2024-02-26T03:53:45;96630.81;;;9.03;99.39
52591;BME280;38483;42.620;25.394;2024-02-26T03:57:05;96626.50;;;9.04;99.58
52591;BME280;38483;42.620;25.394;2024-02-26T04:00:26;96633.03;;;9.11;98.71
52591;BME280;38483;42.620;25.394;2024-02-26T04:03:48;96624.25;;;8.96;98.55
52591;BME280;38483;42.620;25.394;2024-02-26T04:07:08;96626.16;;;8.93;98.84
52591;BME280;38483;42.620;25.394;2024-02-26T04:10:29;96633.41;;;8.85;98.23
52591;BME280;38483;42.620;25.394;2024-02-26T04:13:50;96610.97;;;8.30;99.48
52591;BME280;38483;42.620;25.394;2024-02-26T04:17:12;96638.53;;;8.48;100.00
52591;BME280;38483;42.620;25.394;2024-02-26T04:20:33;96635.72;;;8.34;100.00
52591;BME280;38483;42.620;25.394;2024-02-26T04:23:54;96640.34;;;8.05;100.00
52591;BME280;38483;42.620;25.394;2024-02-26T04:27:14;96632.50;;;7.88;100.00
52591;BME280;38483;42.620;25.394;2024-02-26T04:30:35;96633.78;;;7.78;100.00
52591;BME280;38483;42.620;25.394;2024-02-26T04:33:55;96636.53;;;7.74;100.00
52591;BME280;38483;42.620;25.394;2024-02-26T04:37:16;96639.72;;;7.59;100.00
52591;BME280;38483;42.620;25.394;2024-02-26T04:40:37;96649.69;;;7.46;100.00
52591;BME280;38483;42.620;25.394;2024-02-26T04:43:57;96644.91;;;7.37;100.00
52591;BME280;38483;42.620;25.394;2024-02-26T04:47:18;96642.09;;;7.43;100.00
52591;BME280;38483;42.620;25.394;2024-02-26T04:50:39;96640.88;;;7.52;100.00
52591;BME280;38483;42.620;25.394;2024-02-26T04:53:59;96642.25;;;7.60;100.00
52591;BME280;38483;42.620;25.394;2024-02-26T04:57:21;96646.94;;;7.71;100.00
52591;BME280;38483;42.620;25.394;2024-02-26T05:00:41;96650.69;;;7.64;100.00
52591;BME280;38483;42.620;25.394;2024-02-26T05:04:02;96642.47;;;7.76;100.00
52591;BME280;38483;42.620;25.394;2024-02-26T05:07:22;96636.88;;;7.86;100.00
52591;BME280;38483;42.620;25.394;2024-02-26T05:10:45;96645.97;;;7.95;100.00
52591;BME280;38483;42.620;25.394;2024-02-26T05:14:04;96648.97;;;8.04;100.00
52591;BME280;38483;42.620;25.394;2024-02-26T05:17:25;96639.34;;;8.30;100.00
52591;BME280;38483;42.620;25.394;2024-02-26T05:20:45;96639.34;;;8.30;100.00
52591;BME280;38483;42.620;25.394;2024-02-26T05:24:06;96628.94;;;8.31;100.00
52591;BME280;38483;42.620;25.394;2024-02-26T05:27:27;96632.88;;;8.19;100.00
52591;BME280;38483;42.620;25.394;2024-02-26T05:30:48;96646.72;;;8.17;100.00
52591;BME280;38483;42.620;25.394;2024-02-26T05:33:31;96623.41;;;8.20;100.00
52591;BME280;38483;42.620;25.394;2024-02-26T05:35:58;96653.13;;;8.49;100.00
52591;BME280;38483;42.620;25.394;2024-02-26T05:38:30;96646.78;;;8.56;100.00
52591;BME280;38483;42.620;25.394;2024-02-26T05:40:58;96669.41;;;8.69;100.00
52591;BME280;38483;42.620;25.394;2024-02-26T05:43:26;96665.34;;;8.82;100.00
52591;BME280;38483;42.620;25.394;2024-02-26T05:45:53;96679.88;;;8.85;100.00
52591;BME280;38483;42.620;25.394;2024-02-26T05:48:21;96681.13;;;8.95;100.00
52591;BME280;38483;42.620;25.394;2024-02-26T05:50:48;96669.97;;;8.94;100.00
52591;BME280;38483;42.620;25.394;2024-02-26T05:53:15;96680.81;;;9.02;99.80
52591;BME280;38483;42.620;25.394;2024-02-26T05:55:42;96677.94;;;8.90;99.91
52591;BME280;38483;42.620;25.394;2024-02-26T05:58:09;96675.13;;;8.94;99.38
52591;BME280;38483;42.620;25.394;2024-02-26T06:00:36;96674.31;;;8.94;99.84
52591;BME280;38483;42.620;25.394;2024-02-26T06:03:03;96681.31;;;8.72;100.00
52591;BME280;38483;42.620;25.394;2024-02-26T06:05:31;96679.28;;;8.60;100.00
52591;BME280;38483;42.620;25.394;2024-02-26T06:07:58;96688.75;;;8.79;100.00
52591;BME280;38483;42.620;25.394;2024-02-26T06:10:25;96693.28;;;8.93;100.00
52591;BME280;38483;42.620;25.394;2024-02-26T06:12:52;96693.28;;;8.93;99.49
52591;BME280;38483;42.620;25.394;2024-02-26T06:15:19;96697.88;;;9.05;99.26
52591;BME280;38483;42.620;25.394;2024-02-26T06:17:46;96648.97;;;8.83;97.91
52591;BME280;38483;42.620;25.394;2024-02-26T06:20:14;96695.50;;;9.00;98.39
52591;BME280;38483;42.620;25.394;2024-02-26T06:22:41;96689.53;;;9.19;98.13
52591;BME280;38483;42.620;25.394;2024-02-26T06:25:08;96701.88;;;8.93;98.37
52591;BME280;38483;42.620;25.394;2024-02-26T06:27:35;96706.28;;;8.91;99.85
52591;BME280;38483;42.620;25.394;2024-02-26T06:30:02;96700.69;;;8.82;100.00
52591;BME280;38483;42.620;25.394;2024-02-26T06:32:30;96698.38;;;8.94;100.00
52591;BME280;38483;42.620;25.394;2024-02-26T06:34:57;96700.84;;;9.16;100.00
52591;BME280;38483;42.620;25.394;2024-02-26T06:37:24;96704.19;;;9.37;99.96
52591;BME280;38483;42.620;25.394;2024-02-26T06:39:52;96699.28;;;9.49;98.79
52591;BME280;38483;42.620;25.394;2024-02-26T06:42:19;96707.50;;;9.57;98.23
52591;BME280;38483;42.620;25.394;2024-02-26T06:44:46;96717.47;;;9.65;97.56
52591;BME280;38483;42.620;25.394;2024-02-26T06:47:13;96710.44;;;9.68;97.72
52591;BME280;38483;42.620;25.394;2024-02-26T06:49:40;96706.50;;;9.78;97.10
52591;BME280;38483;42.620;25.394;2024-02-26T06:52:07;96709.69;;;9.83;96.69
52591;BME280;38483;42.620;25.394;2024-02-26T06:54:34;96700.03;;;9.87;96.01
52591;BME280;38483;42.620;25.394;2024-02-26T06:57:01;96715.41;;;9.90;96.25
52591;BME280;38483;42.620;25.394;2024-02-26T06:59:28;96715.16;;;9.77;96.35
52591;BME280;38483;42.620;25.394;2024-02-26T07:01:56;96717.94;;;9.73;96.79
52591;BME280;38483;42.620;25.394;2024-02-26T07:04:23;96607.97;;;9.13;97.08
52591;BME280;38483;42.620;25.394;2024-02-26T07:06:50;96706.25;;;9.83;97.89
52591;BME280;38483;42.620;25.394;2024-02-26T07:09:17;96716.56;;;10.02;97.01
52591;BME280;38483;42.620;25.394;2024-02-26T07:11:44;96715.78;;;10.00;97.58
52591;BME280;38483;42.620;25.394;2024-02-26T07:14:12;96713.66;;;10.08;97.56
52591;BME280;38483;42.620;25.394;2024-02-26T07:16:39;96713.66;;;10.08;97.71
52591;BME280;38483;42.620;25.394;2024-02-26T07:19:06;96700.47;;;10.14;96.67
52591;BME280;38483;42.620;25.394;2024-02-26T07:21:33;96722.00;;;10.31;95.84
52591;BME280;38483;42.620;25.394;2024-02-26T07:24:02;96724.16;;;10.40;95.57
52591;BME280;38483;42.620;25.394;2024-02-26T07:26:29;96720.56;;;10.43;95.72
52591;BME280;38483;42.620;25.394;2024-02-26T07:28:57;96717.38;;;10.55;95.10
52591;BME280;38483;42.620;25.394;2024-02-26T07:31:25;96715.91;;;10.49;95.00
52591;BME280;38483;42.620;25.394;2024-02-26T07:33:52;96716.44;;;10.39;96.35
52591;BME280;38483;42.620;25.394;2024-02-26T07:36:19;96713.41;;;10.31;97.21
52591;BME280;38483;42.620;25.394;2024-02-26T07:38:46;96716.75;;;10.33;97.08
52591;BME280;38483;42.620;25.394;2024-02-26T07:41:16;96714.09;;;10.34;97.20
52591;BME280;38483;42.620;25.394;2024-02-26T07:43:43;96707.78;;;10.40;96.91
52591;BME280;38483;42.620;25.394;2024-02-26T07:46:13;96705.94;;;10.42;97.24
52591;BME280;38483;42.620;25.394;2024-02-26T07:48:40;96702.19;;;10.47;97.21
52591;BME280;38483;42.620;25.394;2024-02-26T07:51:09;96713.22;;;10.68;96.87
52591;BME280;38483;42.620;25.394;2024-02-26T07:53:38;96709.09;;;10.81;96.36
52591;BME280;38483;42.620;25.394;2024-02-26T07:56:05;96711.06;;;10.76;95.18
52591;BME280;38483;42.620;25.394;2024-02-26T07:58:33;96715.25;;;10.79;95.59
52591;BME280;38483;42.620;25.394;2024-02-26T08:01:00;96718.72;;;10.95;95.75
52591;BME280;38483;42.620;25.394;2024-02-26T08:03:28;96718.25;;;11.04;95.60
52591;BME280;38483;42.620;25.394;2024-02-26T08:05:55;96708.31;;;11.27;93.79
52591;BME280;38483;42.620;25.394;2024-02-26T08:08:22;96718.28;;;11.35;93.12
52591;BME280;38483;42.620;25.394;2024-02-26T08:10:49;96707.41;;;11.28;93.33
52591;BME280;38483;42.620;25.394;2024-02-26T08:13:17;96705.72;;;11.27;93.32
52591;BME280;38483;42.620;25.394;2024-02-26T08:15:44;96709.59;;;11.20;94.04
52591;BME280;38483;42.620;25.394;2024-02-26T08:18:11;96712.59;;;11.28;93.48
52591;BME280;38483;42.620;25.394;2024-02-26T08:20:38;96714.88;;;11.34;94.03
52591;BME280;38483;42.620;25.394;2024-02-26T08:23:05;96704.06;;;11.42;93.13
52591;BME280;38483;42.620;25.394;2024-02-26T08:25:32;96711.59;;;11.46;93.50
52591;BME280;38483;42.620;25.394;2024-02-26T08:27:59;96692.34;;;11.51;92.96
52591;BME280;38483;42.620;25.394;2024-02-26T08:30:26;96700.09;;;11.68;93.02
52591;BME280;38483;42.620;25.394;2024-02-26T08:32:54;96708.28;;;11.76;92.72
52591;BME280;38483;42.620;25.394;2024-02-26T08:35:21;96697.06;;;11.75;92.50
52591;BME280;38483;42.620;25.394;2024-02-26T08:37:48;96661.59;;;11.60;92.66
52591;BME280;38483;42.620;25.394;2024-02-26T08:40:15;96695.00;;;11.96;91.83
52591;BME280;38483;42.620;25.394;2024-02-26T08:42:43;96703.94;;;12.06;91.44
52591;BME280;38483;42.620;25.394;2024-02-26T08:45:11;96705.31;;;12.27;90.52
52591;BME280;38483;42.620;25.394;2024-02-26T08:47:39;96698.16;;;12.16;89.83
52591;BME280;38483;42.620;25.394;2024-02-26T08:50:06;96699.28;;;12.26;89.06
52591;BME280;38483;42.620;25.394;2024-02-26T08:52:33;96711.13;;;12.46;88.14
52591;BME280;38483;42.620;25.394;2024-02-26T08:55:00;96702.88;;;12.68;86.85
52591;BME280;38483;42.620;25.394;2024-02-26T08:57:29;96701.78;;;12.86;83.98
52591;BME280;38483;42.620;25.394;2024-02-26T08:59:56;96704.16;;;13.19;82.37
52591;BME280;38483;42.620;25.394;2024-02-26T09:02:23;96697.25;;;13.03;82.06
52591;BME280;38483;42.620;25.394;2024-02-26T09:04:50;96701.72;;;13.30;81.34
52591;BME280;38483;42.620;25.394;2024-02-26T09:07:21;96697.84;;;13.23;80.94
52591;BME280;38483;42.620;25.394;2024-02-26T09:09:49;96694.47;;;13.35;80.18
52591;BME280;38483;42.620;25.394;2024-02-26T09:12:16;96682.34;;;13.48;79.04
52591;BME280;38483;42.620;25.394;2024-02-26T09:14:43;96694.56;;;13.74;79.06
52591;BME280;38483;42.620;25.394;2024-02-26T09:17:10;96686.78;;;13.74;79.54
52591;BME280;38483;42.620;25.394;2024-02-26T09:19:37;96639.88;;;13.61;79.32
52591;BME280;38483;42.620;25.394;2024-02-26T09:22:05;96689.44;;;13.86;79.99
52591;BME280;38483;42.620;25.394;2024-02-26T09:24:32;96679.06;;;13.99;80.22
52591;BME280;38483;42.620;25.394;2024-02-26T09:27:00;96686.59;;;14.16;79.13
52591;BME280;38483;42.620;25.394;2024-02-26T09:29:27;96679.09;;;14.24;78.88
52591;BME280;38483;42.620;25.394;2024-02-26T09:31:54;96673.88;;;14.24;78.47
52591;BME280;38483;42.620;25.394;2024-02-26T09:34:21;96689.25;;;14.29;78.10
52591;BME280;38483;42.620;25.394;2024-02-26T09:36:49;96659.31;;;14.22;78.09
52591;BME280;38483;42.620;25.394;2024-02-26T09:39:16;96680.25;;;14.20;78.24
52591;BME280;38483;42.620;25.394;2024-02-26T09:41:48;96671.03;;;14.29;77.55
52591;BME280;38483;42.620;25.394;2024-02-26T09:44:20;96680.03;;;14.23;77.70
52591;BME280;38483;42.620;25.394;2024-02-26T09:46:52;96678.00;;;14.28;77.15
52591;BME280;38483;42.620;25.394;2024-02-26T09:49:20;96676.38;;;14.13;76.77
52591;BME280;38483;42.620;25.394;2024-02-26T09:51:49;96666.56;;;14.04;77.36
52591;BME280;38483;42.620;25.394;2024-02-26T09:54:17;96664.59;;;14.20;76.73
52591;BME280;38483;42.620;25.394;2024-02-26T09:56:47;96664.19;;;14.26;76.53
52591;BME280;38483;42.620;25.394;2024-02-26T09:59:34;96668.66;;;14.12;76.60
52591;BME280;38483;42.620;25.394;2024-02-26T10:02:13;96665.00;;;14.14;76.40
52591;BME280;38483;42.620;25.394;2024-02-26T10:04:42;96651.41;;;14.23;74.69
52591;BME280;38483;42.620;25.394;2024-02-26T10:07:15;96648.75;;;14.37;74.58
52591;BME280;38483;42.620;25.394;2024-02-26T10:09:42;96651.25;;;14.51;73.57
52591;BME280;38483;42.620;25.394;2024-02-26T10:12:10;96654.59;;;14.53;73.76
52591;BME280;38483;42.620;25.394;2024-02-26T10:14:42;96656.34;;;14.65;73.52
52591;BME280;38483;42.620;25.394;2024-02-26T10:17:10;96643.13;;;14.81;72.93
52591;BME280;38483;42.620;25.394;2024-02-26T10:19:37;96647.19;;;14.98;72.15
52591;BME280;38483;42.620;25.394;2024-02-26T10:22:05;96645.06;;;15.03;72.39
52591;BME280;38483;42.620;25.394;2024-02-26T10:24:33;96639.34;;;15.10;70.08
52591;BME280;38483;42.620;25.394;2024-02-26T10:27:02;96643.41;;;15.14;64.22
52591;BME280;38483;42.620;25.394;2024-02-26T10:29:29;96634.59;;;15.28;63.59
52591;BME280;38483;42.620;25.394;2024-02-26T10:31:56;96626.94;;;15.37;62.84
52591;BME280;38483;42.620;25.394;2024-02-26T10:34:24;96613.78;;;15.52;62.74
52591;BME280;38483;42.620;25.394;2024-02-26T10:36:51;96609.44;;;15.27;64.53
52591;BME280;38483;42.620;25.394;2024-02-26T10:39:20;96599.41;;;15.21;66.82
52591;BME280;38483;42.620;25.394;2024-02-26T10:41:49;96604.28;;;15.14;67.10
52591;BME280;38483;42.620;25.394;2024-02-26T10:44:17;96597.78;;;15.20;66.67
52591;BME280;38483;42.620;25.394;2024-02-26T10:46:48;96604.97;;;15.29;64.01
52591;BME280;38483;42.620;25.394;2024-02-26T10:49:17;96586.50;;;15.19;63.50
52591;BME280;38483;42.620;25.394;2024-02-26T10:51:55;96591.09;;;15.16;62.92
52591;BME280;38483;42.620;25.394;2024-02-26T10:54:26;96586.63;;;15.18;62.57
52591;BME280;38483;42.620;25.394;2024-02-26T10:56:56;96585.53;;;15.33;61.21
52591;BME280;38483;42.620;25.394;2024-02-26T10:59:24;96580.69;;;15.16;61.41
52591;BME280;38483;42.620;25.394;2024-02-26T11:01:54;96581.94;;;15.10;61.11
52591;BME280;38483;42.620;25.394;2024-02-26T11:04:22;96579.34;;;15.10;60.97
52591;BME280;38483;42.620;25.394;2024-02-26T11:06:53;96581.84;;;15.12;60.22
52591;BME280;38483;42.620;25.394;2024-02-26T11:09:22;96587.16;;;15.10;60.10
52591;BME280;38483;42.620;25.394;2024-02-26T11:11:51;96576.94;;;15.07;59.56
52591;BME280;38483;42.620;25.394;2024-02-26T11:14:22;96548.50;;;15.04;59.11
52591;BME280;38483;42.620;25.394;2024-02-26T11:16:54;96563.53;;;15.24;58.96
52591;BME280;38483;42.620;25.394;2024-02-26T11:19:24;96565.50;;;15.21;58.99
52591;BME280;38483;42.620;25.394;2024-02-26T11:21:52;96561.03;;;15.23;58.57
52591;BME280;38483;42.620;25.394;2024-02-26T11:24:39;96563.03;;;15.19;58.77
52591;BME280;38483;42.620;25.394;2024-02-26T11:28:06;96564.97;;;15.28;58.12
52591;BME280;38483;42.620;25.394;2024-02-26T11:31:25;96560.09;;;15.24;57.20
52591;BME280;38483;42.620;25.394;2024-02-26T11:34:46;96575.94;;;15.21;56.78
52591;BME280;38483;42.620;25.394;2024-02-26T11:38:16;96561.81;;;15.36;57.06
52591;BME280;38483;42.620;25.394;2024-02-26T11:41:31;96555.84;;;15.46;57.16
52591;BME280;38483;42.620;25.394;2024-02-26T11:44:32;96559.06;;;15.50;56.08
52591;BME280;38483;42.620;25.394;2024-02-26T11:47:09;96553.63;;;15.53;56.86
52591;BME280;38483;42.620;25.394;2024-02-26T11:49:37;96546.06;;;15.61;56.61
52591;BME280;38483;42.620;25.394;2024-02-26T11:52:08;96556.72;;;15.58;56.51
52591;BME280;38483;42.620;25.394;2024-02-26T11:54:39;96555.59;;;15.73;56.44
52591;BME280;38483;42.620;25.394;2024-02-26T11:57:28;96549.09;;;15.79;56.37
52591;BME280;38483;42.620;25.394;2024-02-26T12:00:10;96558.28;;;15.84;56.33
52591;BME280;38483;42.620;25.394;2024-02-26T12:02:49;96548.22;;;15.91;57.17
52591;BME280;38483;42.620;25.394;2024-02-26T12:05:20;96543.69;;;15.93;57.04
52591;BME280;38483;42.620;25.394;2024-02-26T12:08:05;96540.09;;;15.83;56.43
52591;BME280;38483;42.620;25.394;2024-02-26T12:10:37;96534.84;;;15.72;55.48
52591;BME280;38483;42.620;25.394;2024-02-26T12:13:15;96528.28;;;15.66;54.75
52591;BME280;38483;42.620;25.394;2024-02-26T12:15:57;96541.63;;;15.74;55.35
52591;BME280;38483;42.620;25.394;2024-02-26T12:18:25;96534.34;;;15.67;55.69
52591;BME280;38483;42.620;25.394;2024-02-26T12:20:59;96533.50;;;15.66;56.10
52591;BME280;38483;42.620;25.394;2024-02-26T12:23:30;96534.13;;;15.81;55.69
52591;BME280;38483;42.620;25.394;2024-02-26T12:26:01;96540.25;;;15.58;55.95
52591;BME280;38483;42.620;25.394;2024-02-26T12:28:33;96529.63;;;15.48;55.97
52591;BME280;38483;42.620;25.394;2024-02-26T12:31:01;96529.44;;;15.51;55.85
52591;BME280;38483;42.620;25.394;2024-02-26T12:33:30;96528.38;;;15.54;54.99
52591;BME280;38483;42.620;25.394;2024-02-26T12:35:58;96535.56;;;15.50;56.11
52591;BME280;38483;42.620;25.394;2024-02-26T12:38:26;96529.91;;;15.56;55.60
52591;BME280;38483;42.620;25.394;2024-02-26T12:40:54;96542.91;;;15.45;56.45
52591;BME280;38483;42.620;25.394;2024-02-26T12:43:21;96539.34;;;15.46;55.99
52591;BME280;38483;42.620;25.394;2024-02-26T12:45:48;96537.53;;;15.59;56.25
52591;BME280;38483;42.620;25.394;2024-02-26T12:48:15;96531.78;;;15.54;57.13
52591;BME280;38483;42.620;25.394;2024-02-26T12:50:46;96537.97;;;15.53;56.93
52591;BME280;38483;42.620;25.394;2024-02-26T12:53:16;96538.00;;;15.64;56.75
52591;BME280;38483;42.620;25.394;2024-02-26T12:55:44;96531.06;;;15.52;58.00
52591;BME280;38483;42.620;25.394;2024-02-26T12:58:12;96540.72;;;15.52;57.88
52591;BME280;38483;42.620;25.394;2024-02-26T13:00:39;96537.13;;;15.53;58.08
52591;BME280;38483;42.620;25.394;2024-02-26T13:03:09;96540.84;;;15.61;58.44
52591;BME280;38483;42.620;25.394;2024-02-26T13:05:36;96539.41;;;15.57;58.07
52591;BME280;38483;42.620;25.394;2024-02-26T13:08:04;96528.09;;;15.45;58.82
52591;BME280;38483;42.620;25.394;2024-02-26T13:10:35;96538.63;;;15.44;59.19
52591;BME280;38483;42.620;25.394;2024-02-26T13:13:02;96549.59;;;15.49;59.41
52591;BME280;38483;42.620;25.394;2024-02-26T13:15:31;96548.22;;;15.67;58.88
52591;BME280;38483;42.620;25.394;2024-02-26T13:18:11;96535.63;;;15.61;58.91
52591;BME280;38483;42.620;25.394;2024-02-26T13:20:39;96548.69;;;15.61;58.72
52591;BME280;38483;42.620;25.394;2024-02-26T13:23:12;96546.97;;;15.49;59.39
52591;BME280;38483;42.620;25.394;2024-02-26T13:25:40;96550.91;;;15.55;58.68
52591;BME280;38483;42.620;25.394;2024-02-26T13:28:18;96555.78;;;15.59;58.58
52591;BME280;38483;42.620;25.394;2024-02-26T13:30:53;96554.09;;;15.47;59.10
52591;BME280;38483;42.620;25.394;2024-02-26T13:33:24;96561.78;;;15.48;58.73
52591;BME280;38483;42.620;25.394;2024-02-26T13:35:52;96558.13;;;15.51;58.35
52591;BME280;38483;42.620;25.394;2024-02-26T13:38:20;96562.00;;;15.69;57.72
52591;BME280;38483;42.620;25.394;2024-02-26T13:40:47;96567.69;;;15.63;57.90
52591;BME280;38483;42.620;25.394;2024-02-26T13:43:15;96558.66;;;15.67;57.14
52591;BME280;38483;42.620;25.394;2024-02-26T13:45:42;96563.06;;;15.67;56.89
52591;BME280;38483;42.620;25.394;2024-02-26T13:48:10;96552.31;;;15.48;57.23
52591;BME280;38483;42.620;25.394;2024-02-26T13:50:39;96559.00;;;15.63;56.90
52591;BME280;38483;42.620;25.394;2024-02-26T13:53:07;96569.31;;;15.64;57.39
52591;BME280;38483;42.620;25.394;2024-02-26T13:55:34;96561.28;;;15.67;57.32
52591;BME280;38483;42.620;25.394;2024-02-26T13:58:01;96559.28;;;15.71;56.51
52591;BME280;38483;42.620;25.394;2024-02-26T14:00:29;96557.03;;;15.77;56.57
52591;BME280;38483;42.620;25.394;2024-02-26T14:03:00;96566.09;;;15.84;56.71
52591;BME280;38483;42.620;25.394;2024-02-26T14:05:27;96560.09;;;15.71;57.44
52591;BME280;38483;42.620;25.394;2024-02-26T14:07:55;96565.00;;;15.76;56.98
52591;BME280;38483;42.620;25.394;2024-02-26T14:10:22;96567.28;;;15.91;56.16
52591;BME280;38483;42.620;25.394;2024-02-26T14:12:49;96564.16;;;15.75;56.35
52591;BME280;38483;42.620;25.394;2024-02-26T14:15:16;96576.94;;;15.67;56.43
52591;BME280;38483;42.620;25.394;2024-02-26T14:17:43;96564.50;;;15.71;56.28
52591;BME280;38483;42.620;25.394;2024-02-26T14:20:11;96563.56;;;15.72;56.00
52591;BME280;38483;42.620;25.394;2024-02-26T14:22:38;96563.56;;;15.72;56.07
52591;BME280;38483;42.620;25.394;2024-02-26T14:25:05;96563.78;;;15.69;55.45
52591;BME280;38483;42.620;25.394;2024-02-26T14:27:32;96561.50;;;15.64;55.39
52591;BME280;38483;42.620;25.394;2024-02-26T14:29:59;96566.56;;;15.55;55.77
52591;BME280;38483;42.620;25.394;2024-02-26T14:32:27;96569.09;;;15.43;57.09